createdAt,value
2023-03-20T00:02:00.869Z,23.92
2023-03-20T00:04:29.689Z,25.42
2023-03-20T00:06:56.710Z,26.55
2023-03-20T00:09:25.640Z,28.15
2023-03-20T00:11:54.497Z,26.40
2023-03-20T00:14:24.582Z,25.70
2023-03-20T00:16:52.338Z,25.20
2023-03-20T00:19:26.345Z,28.02
2023-03-20T00:21:54.912Z,27.38
2023-03-20T00:24:22.863Z,27.63
2023-03-20T00:26:51.827Z,28.85
2023-03-20T00:29:24.875Z,27.80
2023-03-20T00:31:52.523Z,26.95
2023-03-20T00:34:23.534Z,26.48
2023-03-20T00:36:51.609Z,26.83
2023-03-20T00:39:18.886Z,26.73
2023-03-20T00:42:01.926Z,25.13
2023-03-20T00:44:36.251Z,24.50
2023-03-20T00:47:07.011Z,24.90
2023-03-20T00:49:35.780Z,27.23
2023-03-20T00:52:03.622Z,26.58
2023-03-20T00:54:31.236Z,26.90
2023-03-20T00:57:02.604Z,25.50
2023-03-20T00:59:34.485Z,27.45
2023-03-20T01:02:02.725Z,26.45
2023-03-20T01:04:39.245Z,26.60
2023-03-20T01:07:07.452Z,26.73
2023-03-20T01:09:34.314Z,27.42
2023-03-20T01:12:02.236Z,25.73
2023-03-20T01:14:29.209Z,24.48
2023-03-20T01:16:56.202Z,24.92
2023-03-20T01:19:23.029Z,26.17
2023-03-20T01:21:50.298Z,27.10
2023-03-20T01:24:17.167Z,26.17
2023-03-20T01:26:45.149Z,26.92
2023-03-20T01:29:27.693Z,27.27
2023-03-20T01:31:54.682Z,26.42
2023-03-20T01:34:21.622Z,26.08
2023-03-20T01:36:53.854Z,25.45
2023-03-20T01:41:51.044Z,26.02
2023-03-20T01:44:30.816Z,27.85
2023-03-20T01:46:58.251Z,28.02
2023-03-20T01:49:25.022Z,28.83
2023-03-20T01:51:52.878Z,27.83
2023-03-20T01:54:32.859Z,25.83
2023-03-20T01:57:14.094Z,25.90
2023-03-20T01:59:49.966Z,25.45
2023-03-20T02:02:22.049Z,26.77
2023-03-20T02:04:54.102Z,27.27
2023-03-20T02:07:23.369Z,27.95
2023-03-20T02:09:50.966Z,30.00
2023-03-20T02:12:19.577Z,27.27
2023-03-20T02:14:48.149Z,28.55
2023-03-20T02:17:15.582Z,27.75
2023-03-20T02:19:57.629Z,28.05
2023-03-20T02:22:30.862Z,28.52
2023-03-20T02:25:28.571Z,28.45
2023-03-20T02:28:13.698Z,28.73
2023-03-20T02:30:51.681Z,28.42
2023-03-20T02:33:30.424Z,29.25
2023-03-20T02:36:28.727Z,27.30
2023-03-20T02:39:25.894Z,29.10
2023-03-20T02:42:10.736Z,27.85
2023-03-20T02:44:51.581Z,25.98
2023-03-20T02:47:27.264Z,29.33
2023-03-20T02:50:17.191Z,29.13
2023-03-20T02:53:02.828Z,29.23
2023-03-20T02:55:35.815Z,29.73
2023-03-20T02:58:08.639Z,28.90
2023-03-20T03:00:40.860Z,29.20
2023-03-20T03:06:09.188Z,27.88
2023-03-20T03:08:41.423Z,27.77
2023-03-20T03:13:40.326Z,28.08
2023-03-20T03:16:12.304Z,28.08
2023-03-20T03:18:42.393Z,27.25
2023-03-20T03:21:12.059Z,27.02
2023-03-20T03:23:49.350Z,26.85
2023-03-20T03:26:31.470Z,27.33
2023-03-20T03:29:14.343Z,28.60
2023-03-20T03:31:42.711Z,28.95
2023-03-20T03:34:13.704Z,28.50
2023-03-20T03:37:05.807Z,29.35
2023-03-20T03:39:52.499Z,29.85
2023-03-20T03:42:24.973Z,28.88
2023-03-20T03:45:15.792Z,28.95
2023-03-20T03:47:47.009Z,30.05
2023-03-20T03:50:30.426Z,29.48
2023-03-20T03:53:01.530Z,29.33
2023-03-20T03:55:35.689Z,29.17
2023-03-20T03:58:18.771Z,29.73
2023-03-20T04:00:50.690Z,28.92
2023-03-20T04:03:20.361Z,29.60
2023-03-20T04:05:47.866Z,31.88
2023-03-20T04:08:16.299Z,29.58
2023-03-20T04:10:43.104Z,30.23
2023-03-20T04:13:10.522Z,30.92
2023-03-20T04:15:38.396Z,30.40
2023-03-20T04:18:05.689Z,31.40
2023-03-20T04:20:32.591Z,29.55
2023-03-20T04:22:59.552Z,30.05
2023-03-20T04:25:26.780Z,30.60
2023-03-20T04:27:53.866Z,31.42
2023-03-20T04:30:20.667Z,30.25
2023-03-20T04:32:47.561Z,29.45
2023-03-20T04:35:14.398Z,31.55
2023-03-20T04:37:41.164Z,31.80
2023-03-20T04:40:08.342Z,31.10
2023-03-20T04:42:35.284Z,31.27
2023-03-20T04:45:02.286Z,29.17
2023-03-20T04:47:29.090Z,31.52
2023-03-20T04:49:56.182Z,32.53
2023-03-20T04:52:22.960Z,32.78
2023-03-20T04:54:49.732Z,30.90
2023-03-20T04:57:16.826Z,32.42
2023-03-20T04:59:43.636Z,30.02
2023-03-20T05:02:14.958Z,29.35
2023-03-20T05:04:44.841Z,31.77
2023-03-20T05:07:11.637Z,29.70
2023-03-20T05:09:38.460Z,30.77
2023-03-20T05:12:05.807Z,29.38
2023-03-20T05:14:32.667Z,31.00
2023-03-20T05:16:59.488Z,32.05
2023-03-20T05:19:26.409Z,33.08
2023-03-20T05:21:53.455Z,32.17
2023-03-20T05:24:21.076Z,34.40
2023-03-20T05:26:47.907Z,31.45
2023-03-20T05:29:14.755Z,24.80
2023-03-20T05:31:41.772Z,28.67
2023-03-20T05:34:08.541Z,32.10
2023-03-20T05:36:35.301Z,28.88
2023-03-20T05:39:02.126Z,27.45
2023-03-20T05:41:28.895Z,31.30
2023-03-20T05:43:55.670Z,28.02
2023-03-20T05:46:23.385Z,29.77
2023-03-20T05:48:50.352Z,31.48
2023-03-20T05:51:17.209Z,31.60
2023-03-20T05:53:43.982Z,31.48
2023-03-20T05:56:10.936Z,30.65
2023-03-20T05:58:37.776Z,32.47
2023-03-20T06:01:05.171Z,33.58
2023-03-20T06:03:31.992Z,31.65
2023-03-20T06:05:58.796Z,31.10
2023-03-20T06:08:25.845Z,31.38
2023-03-20T06:10:53.050Z,31.02
2023-03-20T06:13:19.975Z,32.05
2023-03-20T06:15:46.981Z,29.05
2023-03-20T06:18:13.886Z,32.25
2023-03-20T06:20:41.098Z,31.88
2023-03-20T06:23:08.067Z,31.85
2023-03-20T06:25:35.314Z,31.55
2023-03-20T06:28:02.467Z,31.77
2023-03-20T06:30:29.431Z,31.95
2023-03-20T06:32:56.280Z,33.65
2023-03-20T06:35:23.275Z,34.05
2023-03-20T06:37:50.031Z,33.65
2023-03-20T06:40:16.962Z,33.55
2023-03-20T06:42:43.759Z,33.55
2023-03-20T06:45:11.253Z,33.78
2023-03-20T06:47:38.066Z,32.58
2023-03-20T06:50:05.406Z,32.50
2023-03-20T06:52:32.174Z,32.88
2023-03-20T06:54:58.989Z,33.70
2023-03-20T06:57:25.955Z,33.20
2023-03-20T06:59:52.742Z,31.65
2023-03-20T07:02:20.260Z,32.08
2023-03-20T07:04:47.340Z,32.85
2023-03-20T07:07:21.400Z,31.15
2023-03-20T07:09:48.648Z,32.35
2023-03-20T07:12:16.699Z,32.58
2023-03-20T07:14:43.591Z,33.75
2023-03-20T07:17:11.125Z,32.25
2023-03-20T07:19:38.384Z,33.13
2023-03-20T07:22:08.024Z,34.83
2023-03-20T07:24:35.250Z,30.83
2023-03-20T07:27:02.204Z,29.05
2023-03-20T07:29:29.033Z,32.10
2023-03-20T07:31:55.951Z,31.55
2023-03-20T07:34:22.804Z,31.75
2023-03-20T07:36:49.593Z,30.50
2023-03-20T07:39:16.831Z,29.70
2023-03-20T07:41:43.641Z,30.33
2023-03-20T07:44:10.712Z,29.45
2023-03-20T07:46:37.573Z,28.52
2023-03-20T07:49:05.728Z,28.45
2023-03-20T07:51:32.857Z,28.52
2023-03-20T07:53:59.707Z,28.48
2023-03-20T07:56:26.539Z,29.33
2023-03-20T07:58:53.279Z,30.27
2023-03-20T08:01:20.112Z,29.40
2023-03-20T08:03:47.703Z,29.02
2023-03-20T08:06:14.542Z,31.58
2023-03-20T08:08:41.356Z,30.38
2023-03-20T08:11:08.153Z,29.42
2023-03-20T08:13:34.956Z,28.45
2023-03-20T08:16:01.739Z,28.50
2023-03-20T08:18:28.454Z,28.60
2023-03-20T08:20:55.402Z,30.20
2023-03-20T08:23:23.431Z,28.60
2023-03-20T08:25:52.161Z,29.10
2023-03-20T08:28:19.177Z,30.00
2023-03-20T08:30:46.382Z,28.75
2023-03-20T08:33:14.802Z,27.70
2023-03-20T08:35:41.736Z,27.13
2023-03-20T08:38:12.322Z,27.60
2023-03-20T08:40:42.453Z,27.30
2023-03-20T08:43:09.822Z,27.65
2023-03-20T08:45:37.032Z,28.30
2023-03-20T08:48:04.160Z,26.27
2023-03-20T08:50:31.573Z,28.00
2023-03-20T08:52:58.577Z,27.35
2023-03-20T08:55:25.440Z,28.70
2023-03-20T08:57:54.467Z,28.33
2023-03-20T09:00:21.470Z,28.13
2023-03-20T09:02:48.443Z,28.42
2023-03-20T09:05:15.481Z,27.13
2023-03-20T09:07:42.367Z,28.15
2023-03-20T09:10:10.938Z,27.52
2023-03-20T09:12:38.186Z,27.65
2023-03-20T09:15:05.975Z,27.65
2023-03-20T09:17:32.870Z,27.08
2023-03-20T09:19:59.696Z,27.15
2023-03-20T09:22:26.505Z,27.33
2023-03-20T09:24:53.354Z,26.67
2023-03-20T09:27:20.283Z,27.80
2023-03-20T09:29:47.093Z,27.38
2023-03-20T09:32:15.348Z,27.48
2023-03-20T09:34:42.413Z,27.58
2023-03-20T09:37:09.470Z,29.35
2023-03-20T09:39:36.392Z,26.83
2023-03-20T09:42:44.067Z,26.00
2023-03-20T09:45:26.884Z,28.42
2023-03-20T09:48:18.989Z,34.38
2023-03-20T09:51:31.863Z,27.33
2023-03-20T09:54:11.511Z,31.73
2023-03-20T09:56:38.572Z,29.48
2023-03-20T09:59:06.844Z,29.05
2023-03-20T10:01:54.420Z,29.25
2023-03-20T10:04:23.323Z,27.77
2023-03-20T10:06:50.086Z,27.75
2023-03-20T10:09:25.900Z,28.10
2023-03-20T10:12:23.469Z,27.65
2023-03-20T10:15:00.956Z,28.70
2023-03-20T10:17:58.685Z,28.67
2023-03-20T10:20:35.511Z,27.83
2023-03-20T10:23:14.391Z,26.58
2023-03-20T10:25:47.475Z,27.75
2023-03-20T10:28:20.508Z,27.15
2023-03-20T10:30:56.402Z,28.08
2023-03-20T10:33:38.163Z,27.63
2023-03-20T10:36:33.942Z,27.40
2023-03-20T10:39:10.542Z,27.00
2023-03-20T10:41:41.766Z,26.88
2023-03-20T10:44:22.512Z,27.90
2023-03-20T10:46:54.360Z,26.75
2023-03-20T10:52:01.253Z,26.08
2023-03-20T10:54:32.799Z,26.92
2023-03-20T10:57:02.037Z,27.35
2023-03-20T10:59:49.237Z,26.63
2023-03-20T11:02:18.243Z,28.52
2023-03-20T11:04:45.290Z,27.45
2023-03-20T11:07:37.338Z,27.90
2023-03-20T11:10:07.979Z,28.13
2023-03-20T11:12:41.106Z,27.70
2023-03-20T11:15:32.225Z,28.23
2023-03-20T11:18:01.780Z,26.98
2023-03-20T11:20:35.441Z,28.60
2023-03-20T11:23:05.608Z,27.70
2023-03-20T11:25:40.010Z,27.17
2023-03-20T11:28:38.324Z,27.75
2023-03-20T11:31:14.237Z,27.00
2023-03-20T11:33:44.945Z,27.42
2023-03-20T11:36:41.054Z,28.58
2023-03-20T11:39:14.756Z,26.88
2023-03-20T11:41:53.002Z,27.83
2023-03-20T11:44:27.110Z,28.20
2023-03-20T11:47:04.267Z,28.75
2023-03-20T11:49:47.755Z,29.60
2023-03-20T11:52:20.539Z,28.60
2023-03-20T11:54:53.692Z,28.38
2023-03-20T11:57:40.107Z,28.60
2023-03-20T12:00:25.421Z,27.98
2023-03-20T12:02:52.540Z,27.90
2023-03-20T12:05:39.792Z,28.05
2023-03-20T12:08:16.699Z,27.30
2023-03-20T12:10:49.243Z,28.20
2023-03-20T12:13:26.233Z,28.55
2023-03-20T12:15:58.198Z,28.58
2023-03-20T12:18:38.989Z,28.58
2023-03-20T12:21:23.819Z,29.00
2023-03-20T12:24:01.216Z,29.02
2023-03-20T12:26:35.119Z,29.33
2023-03-20T12:29:07.842Z,28.08
2023-03-20T12:31:50.265Z,29.50
2023-03-20T12:34:32.263Z,29.75
2023-03-20T12:39:32.049Z,28.65
2023-03-20T12:42:14.182Z,28.13
2023-03-20T12:45:01.350Z,29.60
2023-03-20T12:47:59.288Z,29.38
2023-03-20T12:50:39.202Z,29.38
2023-03-20T12:53:24.297Z,28.55
2023-03-20T12:56:09.111Z,28.73
2023-03-20T12:59:02.002Z,29.17
2023-03-20T13:01:40.772Z,29.90
2023-03-20T13:04:27.874Z,30.45
2023-03-20T13:07:03.033Z,29.42
2023-03-20T13:10:03.997Z,28.52
2023-03-20T13:13:05.599Z,29.98
2023-03-20T13:15:49.427Z,29.65
2023-03-20T13:18:54.476Z,30.10
2023-03-20T13:21:56.695Z,30.45
2023-03-20T13:27:07.995Z,29.50
2023-03-20T13:30:04.874Z,30.42
2023-03-20T13:32:46.926Z,30.60
2023-03-20T13:38:06.092Z,29.85
2023-03-20T13:40:44.023Z,30.20
2023-03-20T13:43:37.583Z,31.48
2023-03-20T13:46:12.299Z,30.50
2023-03-20T13:48:41.344Z,29.42
2023-03-20T13:51:22.106Z,28.88
2023-03-20T13:54:00.808Z,29.88
2023-03-20T13:56:42.822Z,31.33
2023-03-20T14:02:18.437Z,30.60
2023-03-20T14:04:47.656Z,31.48
2023-03-20T14:07:47.700Z,31.08
2023-03-20T14:10:24.118Z,30.48
2023-03-20T14:12:53.967Z,32.33
2023-03-20T14:15:21.529Z,31.63
2023-03-20T14:17:50.908Z,31.33
2023-03-20T14:20:39.508Z,31.27
2023-03-20T14:23:07.517Z,30.63
2023-03-20T14:25:43.537Z,31.17
2023-03-20T14:28:13.429Z,30.90
2023-03-20T14:30:47.613Z,31.08
2023-03-20T14:33:17.376Z,31.67
2023-03-20T14:36:04.013Z,30.17
2023-03-20T14:38:39.076Z,30.35
2023-03-20T14:41:21.215Z,35.72
2023-03-20T14:44:08.904Z,32.42
2023-03-20T14:46:44.615Z,31.40
2023-03-20T14:49:27.400Z,29.95
2023-03-20T14:52:01.361Z,30.98
2023-03-20T14:54:30.169Z,32.10
2023-03-20T14:57:15.981Z,31.42
2023-03-20T14:59:54.289Z,30.67
2023-03-20T15:02:53.707Z,31.85
2023-03-20T15:05:30.086Z,31.35
2023-03-20T15:08:03.436Z,29.98
2023-03-20T15:10:30.753Z,31.08
2023-03-20T15:12:58.114Z,32.15
2023-03-20T15:15:28.887Z,30.83
2023-03-20T15:17:55.666Z,32.50
2023-03-20T15:20:25.301Z,31.70
2023-03-20T15:22:57.658Z,31.40
2023-03-20T15:25:49.137Z,31.55
2023-03-20T15:28:19.883Z,32.43
2023-03-20T15:30:49.367Z,31.95
2023-03-20T15:33:26.575Z,31.08
2023-03-20T15:35:54.024Z,31.17
2023-03-20T15:38:21.534Z,32.22
2023-03-20T15:40:51.395Z,31.55
2023-03-20T15:43:25.681Z,32.50
2023-03-20T15:46:17.490Z,31.42
2023-03-20T15:48:48.740Z,32.00
2023-03-20T15:51:16.587Z,31.80
2023-03-20T15:53:46.523Z,31.70
2023-03-20T15:56:18.700Z,33.22
2023-03-20T15:58:48.960Z,31.45
2023-03-20T16:01:22.007Z,32.35
2023-03-20T16:03:49.497Z,33.03
2023-03-20T16:06:20.708Z,32.53
2023-03-20T16:09:01.058Z,32.10
2023-03-20T16:11:40.642Z,32.05
2023-03-20T16:14:14.343Z,32.15
2023-03-20T16:16:41.466Z,32.28
2023-03-20T16:19:12.084Z,32.25
2023-03-20T16:21:43.890Z,33.00
2023-03-20T16:24:17.992Z,32.10
2023-03-20T16:26:48.559Z,32.00
2023-03-20T16:29:16.246Z,31.80
2023-03-20T16:31:50.320Z,30.65
2023-03-20T16:34:22.129Z,32.47
2023-03-20T16:36:55.930Z,32.85
2023-03-20T16:39:26.310Z,33.03
2023-03-20T16:41:57.691Z,33.85
2023-03-20T16:44:32.226Z,33.85
2023-03-20T16:47:14.273Z,32.50
2023-03-20T16:52:14.940Z,32.00
2023-03-20T16:54:42.644Z,33.78
2023-03-20T16:57:15.814Z,33.50
2023-03-20T16:59:42.879Z,33.80
2023-03-20T17:02:37.480Z,33.50
2023-03-20T17:05:11.058Z,34.20
2023-03-20T17:07:38.476Z,32.83
2023-03-20T17:10:20.191Z,33.80
2023-03-20T17:12:49.069Z,34.55
2023-03-20T17:15:18.533Z,33.72
2023-03-20T17:17:45.635Z,34.28
2023-03-20T17:20:26.450Z,35.35
2023-03-20T17:22:53.904Z,34.35
2023-03-20T17:25:21.096Z,35.90
2023-03-20T17:27:48.258Z,34.60
2023-03-20T17:30:25.582Z,36.15
2023-03-20T17:32:52.988Z,37.45
2023-03-20T17:35:20.401Z,39.30
2023-03-20T17:37:48.789Z,41.35
2023-03-20T17:40:25.533Z,42.15
2023-03-20T17:42:52.326Z,40.83
2023-03-20T17:45:21.308Z,40.50
2023-03-20T17:47:48.870Z,38.85
2023-03-20T17:50:25.518Z,40.58
2023-03-20T17:52:52.610Z,40.72
2023-03-20T17:55:19.878Z,39.58
2023-03-20T17:57:46.835Z,40.05
2023-03-20T18:00:22.662Z,41.05
2023-03-20T18:02:49.829Z,39.60
2023-03-20T18:05:17.183Z,39.60
2023-03-20T18:07:44.381Z,38.83
2023-03-20T18:10:28.180Z,38.70
2023-03-20T18:12:54.952Z,40.33
2023-03-20T18:15:21.665Z,44.58
2023-03-20T18:17:48.432Z,38.10
2023-03-20T18:20:31.352Z,38.80
2023-03-20T18:22:58.446Z,39.35
2023-03-20T18:25:29.164Z,40.28
2023-03-20T18:27:58.116Z,40.40
2023-03-20T18:30:30.295Z,45.47
2023-03-20T18:32:57.113Z,44.17
2023-03-20T18:35:23.916Z,44.15
2023-03-20T18:37:50.858Z,42.45
2023-03-20T18:40:29.723Z,40.85
2023-03-20T18:42:57.798Z,43.38
2023-03-20T18:45:27.660Z,42.05
2023-03-20T18:47:55.882Z,47.35
2023-03-20T18:50:27.535Z,40.35
2023-03-20T18:52:55.944Z,42.30
2023-03-20T18:55:24.318Z,42.35
2023-03-20T18:57:51.572Z,42.42
2023-03-20T19:00:23.124Z,42.42
2023-03-20T19:02:51.091Z,39.95
2023-03-20T19:05:19.310Z,39.60
2023-03-20T19:07:47.493Z,41.67
2023-03-20T19:10:36.975Z,41.72
2023-03-20T19:13:06.523Z,41.50
2023-03-20T19:15:36.297Z,40.53
2023-03-20T19:18:08.538Z,42.47
2023-03-20T19:20:37.115Z,43.08
2023-03-20T19:23:06.288Z,44.75
2023-03-20T19:25:33.630Z,44.90
2023-03-20T19:28:01.134Z,42.97
2023-03-20T19:30:39.506Z,43.92
2023-03-20T19:33:07.152Z,41.50
2023-03-20T19:38:22.459Z,44.28
2023-03-20T19:40:53.096Z,41.15
2023-03-20T19:43:23.105Z,42.78
2023-03-20T19:45:56.450Z,41.97
2023-03-20T19:48:46.037Z,39.97
2023-03-20T19:51:28.471Z,42.15
2023-03-20T19:53:56.212Z,41.83
2023-03-20T19:56:23.707Z,41.70
2023-03-20T19:58:50.916Z,39.47
2023-03-20T20:01:21.426Z,39.45
2023-03-20T20:03:49.812Z,42.08
2023-03-20T20:06:20.112Z,42.00
2023-03-20T20:08:49.533Z,41.13
2023-03-20T20:11:18.416Z,43.33
2023-03-20T20:14:09.014Z,42.00
2023-03-20T20:16:34.416Z,41.45
2023-03-20T20:19:01.342Z,42.65
2023-03-20T20:22:13.229Z,42.22
2023-03-20T20:24:16.359Z,42.83
2023-03-20T20:26:53.457Z,45.28
2023-03-20T20:29:22.254Z,44.28
2023-03-20T20:31:49.141Z,41.95
2023-03-20T20:37:51.142Z,43.25
2023-03-20T20:39:50.470Z,43.83
2023-03-20T20:42:17.802Z,45.00
2023-03-20T20:44:44.664Z,45.63
2023-03-20T20:47:12.070Z,45.80
2023-03-20T20:49:39.178Z,46.55
2023-03-20T20:52:07.056Z,45.50
2023-03-20T20:54:34.309Z,45.20
2023-03-20T20:57:01.923Z,47.13
2023-03-20T20:59:29.275Z,46.45
2023-03-20T21:01:56.597Z,45.40
2023-03-20T21:04:23.846Z,45.45
2023-03-20T21:09:37.547Z,43.92
2023-03-20T21:12:05.186Z,48.17
2023-03-20T21:14:32.315Z,48.42
2023-03-20T21:17:01.925Z,50.75
2023-03-20T21:19:40.451Z,49.22
2023-03-20T21:22:09.391Z,49.28
2023-03-20T21:24:36.706Z,48.92
2023-03-20T21:27:06.735Z,46.47
2023-03-20T21:29:34.138Z,47.38
2023-03-20T21:32:01.079Z,44.08
2023-03-20T21:34:28.994Z,47.13
2023-03-20T21:36:57.441Z,48.05
2023-03-20T21:39:25.298Z,48.35
2023-03-20T21:41:52.123Z,49.00
2023-03-20T21:44:48.793Z,46.50
2023-03-20T21:53:17.933Z,49.97
2023-03-20T22:01:39.726Z,46.65
2023-03-20T22:04:45.046Z,47.33
2023-03-20T22:15:38.812Z,43.97
2023-03-20T22:32:47.187Z,45.08
2023-03-20T22:40:59.288Z,50.10
2023-03-20T22:43:51.084Z,45.40
2023-03-20T22:46:03.406Z,45.22
2023-03-20T22:48:33.652Z,47.20
2023-03-20T22:51:00.372Z,45.30
2023-03-20T22:53:27.166Z,43.67
2023-03-20T22:55:54.033Z,45.92
2023-03-20T22:58:20.877Z,47.83
2023-03-20T23:00:47.832Z,46.78
2023-03-20T23:03:29.514Z,45.83
2023-03-20T23:06:10.535Z,46.85
2023-03-20T23:08:48.140Z,49.22
2023-03-20T23:11:20.023Z,44.67
2023-03-20T23:13:47.166Z,40.65
2023-03-20T23:16:14.098Z,42.85
2023-03-20T23:18:41.270Z,44.35
2023-03-20T23:21:08.681Z,43.50
2023-03-20T23:23:35.599Z,44.53
2023-03-20T23:26:14.098Z,41.72
2023-03-20T23:28:42.998Z,44.97
2023-03-20T23:31:15.443Z,44.00
2023-03-20T23:33:43.626Z,42.40
2023-03-20T23:36:21.420Z,39.95
2023-03-20T23:38:51.758Z,40.20
2023-03-20T23:41:19.095Z,35.90
2023-03-20T23:43:46.098Z,35.15
2023-03-20T23:46:15.076Z,34.85
2023-03-20T23:48:41.854Z,38.50
2023-03-20T23:51:09.199Z,35.83
2023-03-20T23:53:36.283Z,38.10
2023-03-20T23:56:03.161Z,34.38
2023-03-20T23:58:30.515Z,33.83
